sensor_id;sensor_type;location;lat;lon;timestamp;temperature;humidity
12557;DHT22;6344;49.932;8.308;2023-11-19T00:00:42;8.20;99.90
12557;DHT22;6344;49.932;8.308;2023-11-19T00:03:09;8.20;99.90
12557;DHT22;6344;49.932;8.308;2023-11-19T00:05:36;8.20;99.90
12557;DHT22;6344;49.932;8.308;2023-11-19T00:08:03;8.20;99.90
12557;DHT22;6344;49.932;8.308;2023-11-19T00:10:29;8.20;99.90
12557;DHT22;6344;49.932;8.308;2023-11-19T00:12:56;8.20;99.90
12557;DHT22;6344;49.932;8.308;2023-11-19T00:15:24;8.20;99.90
12557;DHT22;6344;49.932;8.308;2023-11-19T00:17:51;8.30;99.90
12557;DHT22;6344;49.932;8.308;2023-11-19T00:20:19;8.30;99.90
12557;DHT22;6344;49.932;8.308;2023-11-19T00:22:47;8.30;99.90
12557;DHT22;6344;49.932;8.308;2023-11-19T00:25:17;8.30;99.90
12557;DHT22;6344;49.932;8.308;2023-11-19T00:27:43;8.30;99.90
12557;DHT22;6344;49.932;8.308;2023-11-19T00:30:11;8.30;99.90
12557;DHT22;6344;49.932;8.308;2023-11-19T00:32:40;8.30;99.90
12557;DHT22;6344;49.932;8.308;2023-11-19T00:35:07;8.40;99.90
12557;DHT22;6344;49.932;8.308;2023-11-19T00:37:35;8.30;99.90
12557;DHT22;6344;49.932;8.308;2023-11-19T00:40:03;8.40;99.90
12557;DHT22;6344;49.932;8.308;2023-11-19T00:42:31;8.40;99.90
12557;DHT22;6344;49.932;8.308;2023-11-19T00:44:58;8.40;99.90
12557;DHT22;6344;49.932;8.308;2023-11-19T00:47:25;8.40;99.90
12557;DHT22;6344;49.932;8.308;2023-11-19T00:49:53;8.40;99.90
12557;DHT22;6344;49.932;8.308;2023-11-19T00:52:20;8.40;99.90
12557;DHT22;6344;49.932;8.308;2023-11-19T00:54:47;8.50;99.90
12557;DHT22;6344;49.932;8.308;2023-11-19T00:57:14;8.50;99.90
12557;DHT22;6344;49.932;8.308;2023-11-19T00:59:41;8.50;99.90
12557;DHT22;6344;49.932;8.308;2023-11-19T01:02:08;8.40;99.90
12557;DHT22;6344;49.932;8.308;2023-11-19T01:04:35;8.40;99.90
12557;DHT22;6344;49.932;8.308;2023-11-19T01:07:03;8.40;99.90
12557;DHT22;6344;49.932;8.308;2023-11-19T01:09:30;8.40;99.90
12557;DHT22;6344;49.932;8.308;2023-11-19T01:12:00;8.40;99.90
12557;DHT22;6344;49.932;8.308;2023-11-19T01:14:26;8.40;99.90
12557;DHT22;6344;49.932;8.308;2023-11-19T01:16:53;8.50;99.90
12557;DHT22;6344;49.932;8.308;2023-11-19T01:19:21;8.40;99.90
12557;DHT22;6344;49.932;8.308;2023-11-19T01:21:47;8.50;99.90
12557;DHT22;6344;49.932;8.308;2023-11-19T01:24:15;8.50;99.90
12557;DHT22;6344;49.932;8.308;2023-11-19T01:26:43;8.50;99.90
12557;DHT22;6344;49.932;8.308;2023-11-19T01:29:11;8.50;99.90
12557;DHT22;6344;49.932;8.308;2023-11-19T01:31:39;8.60;99.90
12557;DHT22;6344;49.932;8.308;2023-11-19T01:34:05;8.50;99.90
12557;DHT22;6344;49.932;8.308;2023-11-19T01:36:32;8.60;99.90
12557;DHT22;6344;49.932;8.308;2023-11-19T01:38:58;8.50;99.90
12557;DHT22;6344;49.932;8.308;2023-11-19T01:41:27;8.60;99.90
12557;DHT22;6344;49.932;8.308;2023-11-19T01:43:53;8.60;99.90
12557;DHT22;6344;49.932;8.308;2023-11-19T01:46:20;8.70;99.90
12557;DHT22;6344;49.932;8.308;2023-11-19T01:48:47;8.70;99.90
12557;DHT22;6344;49.932;8.308;2023-11-19T01:51:14;8.70;99.90
12557;DHT22;6344;49.932;8.308;2023-11-19T01:53:43;8.70;99.90
12557;DHT22;6344;49.932;8.308;2023-11-19T01:56:13;8.70;99.90
12557;DHT22;6344;49.932;8.308;2023-11-19T01:58:44;8.70;99.90
12557;DHT22;6344;49.932;8.308;2023-11-19T02:01:13;8.70;99.90
12557;DHT22;6344;49.932;8.308;2023-11-19T02:03:39;8.70;99.90
12557;DHT22;6344;49.932;8.308;2023-11-19T02:06:07;8.70;99.90
12557;DHT22;6344;49.932;8.308;2023-11-19T02:08:35;8.70;99.90
12557;DHT22;6344;49.932;8.308;2023-11-19T02:11:02;8.70;99.90
12557;DHT22;6344;49.932;8.308;2023-11-19T02:13:29;8.70;99.90
12557;DHT22;6344;49.932;8.308;2023-11-19T02:15:57;8.70;99.90
12557;DHT22;6344;49.932;8.308;2023-11-19T02:18:26;8.80;99.90
12557;DHT22;6344;49.932;8.308;2023-11-19T02:20:53;8.80;99.90
12557;DHT22;6344;49.932;8.308;2023-11-19T02:23:20;8.80;99.90
12557;DHT22;6344;49.932;8.308;2023-11-19T02:26:00;8.80;99.90
12557;DHT22;6344;49.932;8.308;2023-11-19T02:28:29;8.90;99.90
12557;DHT22;6344;49.932;8.308;2023-11-19T02:30:56;8.90;99.90
12557;DHT22;6344;49.932;8.308;2023-11-19T02:33:23;8.90;99.90
12557;DHT22;6344;49.932;8.308;2023-11-19T02:35:50;8.90;99.90
12557;DHT22;6344;49.932;8.308;2023-11-19T02:38:17;8.90;99.90
12557;DHT22;6344;49.932;8.308;2023-11-19T02:40:44;8.80;99.90
12557;DHT22;6344;49.932;8.308;2023-11-19T02:43:10;8.90;99.90
12557;DHT22;6344;49.932;8.308;2023-11-19T02:45:38;8.80;99.90
12557;DHT22;6344;49.932;8.308;2023-11-19T02:48:05;8.80;99.90
12557;DHT22;6344;49.932;8.308;2023-11-19T02:50:32;8.80;99.90
12557;DHT22;6344;49.932;8.308;2023-11-19T02:52:59;8.80;99.90
12557;DHT22;6344;49.932;8.308;2023-11-19T02:55:26;8.80;99.90
12557;DHT22;6344;49.932;8.308;2023-11-19T02:57:56;8.80;99.90
12557;DHT22;6344;49.932;8.308;2023-11-19T03:00:24;8.80;99.90
12557;DHT22;6344;49.932;8.308;2023-11-19T03:02:59;8.80;99.90
12557;DHT22;6344;49.932;8.308;2023-11-19T03:05:35;8.80;99.90
12557;DHT22;6344;49.932;8.308;2023-11-19T03:08:01;8.80;99.90
12557;DHT22;6344;49.932;8.308;2023-11-19T03:10:28;8.70;99.90
12557;DHT22;6344;49.932;8.308;2023-11-19T03:12:55;8.70;99.90
12557;DHT22;6344;49.932;8.308;2023-11-19T03:15:22;8.80;99.90
12557;DHT22;6344;49.932;8.308;2023-11-19T03:17:49;8.80;99.90
12557;DHT22;6344;49.932;8.308;2023-11-19T03:20:17;8.70;99.90
12557;DHT22;6344;49.932;8.308;2023-11-19T03:22:43;8.70;99.90
12557;DHT22;6344;49.932;8.308;2023-11-19T03:25:10;8.60;99.90
12557;DHT22;6344;49.932;8.308;2023-11-19T03:27:37;8.60;99.90
12557;DHT22;6344;49.932;8.308;2023-11-19T03:30:06;8.60;99.90
12557;DHT22;6344;49.932;8.308;2023-11-19T03:32:32;8.60;99.90
12557;DHT22;6344;49.932;8.308;2023-11-19T03:35:00;8.60;99.90
12557;DHT22;6344;49.932;8.308;2023-11-19T03:37:30;8.60;99.90
12557;DHT22;6344;49.932;8.308;2023-11-19T03:39:58;8.60;99.90
12557;DHT22;6344;49.932;8.308;2023-11-19T03:42:25;8.60;99.90
12557;DHT22;6344;49.932;8.308;2023-11-19T03:44:52;8.60;99.90
12557;DHT22;6344;49.932;8.308;2023-11-19T03:47:18;8.60;99.90
12557;DHT22;6344;49.932;8.308;2023-11-19T03:49:47;8.70;99.90
12557;DHT22;6344;49.932;8.308;2023-11-19T03:52:14;8.60;99.90
12557;DHT22;6344;49.932;8.308;2023-11-19T03:54:42;8.60;99.90
12557;DHT22;6344;49.932;8.308;2023-11-19T03:57:09;8.70;99.90
12557;DHT22;6344;49.932;8.308;2023-11-19T03:59:37;8.80;99.90
12557;DHT22;6344;49.932;8.308;2023-11-19T04:02:04;8.70;99.90
12557;DHT22;6344;49.932;8.308;2023-11-19T04:04:32;8.70;99.90
12557;DHT22;6344;49.932;8.308;2023-11-19T04:07:00;8.70;99.90
12557;DHT22;6344;49.932;8.308;2023-11-19T04:09:28;8.70;99.90
12557;DHT22;6344;49.932;8.308;2023-11-19T04:11:56;8.70;99.90
12557;DHT22;6344;49.932;8.308;2023-11-19T04:14:23;8.80;99.90
12557;DHT22;6344;49.932;8.308;2023-11-19T04:16:49;8.80;99.90
12557;DHT22;6344;49.932;8.308;2023-11-19T04:19:16;8.80;99.90
12557;DHT22;6344;49.932;8.308;2023-11-19T04:21:43;8.80;99.90
12557;DHT22;6344;49.932;8.308;2023-11-19T04:24:10;8.80;99.90
12557;DHT22;6344;49.932;8.308;2023-11-19T04:26:40;8.80;99.90
12557;DHT22;6344;49.932;8.308;2023-11-19T04:29:09;8.80;99.90
12557;DHT22;6344;49.932;8.308;2023-11-19T04:31:36;8.80;99.90
12557;DHT22;6344;49.932;8.308;2023-11-19T04:34:03;8.80;99.90
12557;DHT22;6344;49.932;8.308;2023-11-19T04:36:30;8.80;99.90
12557;DHT22;6344;49.932;8.308;2023-11-19T04:38:56;8.90;99.90
12557;DHT22;6344;49.932;8.308;2023-11-19T04:41:25;8.90;99.90
12557;DHT22;6344;49.932;8.308;2023-11-19T04:43:52;8.90;99.90
12557;DHT22;6344;49.932;8.308;2023-11-19T04:46:20;8.90;99.90
12557;DHT22;6344;49.932;8.308;2023-11-19T04:48:49;8.80;99.90
12557;DHT22;6344;49.932;8.308;2023-11-19T04:51:15;8.80;99.90
12557;DHT22;6344;49.932;8.308;2023-11-19T04:53:42;8.90;99.90
12557;DHT22;6344;49.932;8.308;2023-11-19T04:56:10;8.90;99.90
12557;DHT22;6344;49.932;8.308;2023-11-19T04:58:36;8.90;99.90
12557;DHT22;6344;49.932;8.308;2023-11-19T05:01:04;8.90;99.90
12557;DHT22;6344;49.932;8.308;2023-11-19T05:03:32;8.90;99.90
12557;DHT22;6344;49.932;8.308;2023-11-19T05:05:59;8.80;99.90
12557;DHT22;6344;49.932;8.308;2023-11-19T05:08:25;8.70;99.90
12557;DHT22;6344;49.932;8.308;2023-11-19T05:10:52;8.50;99.90
12557;DHT22;6344;49.932;8.308;2023-11-19T05:13:19;8.50;99.90
12557;DHT22;6344;49.932;8.308;2023-11-19T05:15:45;8.50;99.90
12557;DHT22;6344;49.932;8.308;2023-11-19T05:18:12;8.50;99.90
12557;DHT22;6344;49.932;8.308;2023-11-19T05:20:40;8.60;99.90
12557;DHT22;6344;49.932;8.308;2023-11-19T05:23:07;8.60;99.90
12557;DHT22;6344;49.932;8.308;2023-11-19T05:25:33;8.70;99.90
12557;DHT22;6344;49.932;8.308;2023-11-19T05:28:00;8.70;99.90
12557;DHT22;6344;49.932;8.308;2023-11-19T05:30:27;8.70;99.90
12557;DHT22;6344;49.932;8.308;2023-11-19T05:32:53;8.80;99.90
12557;DHT22;6344;49.932;8.308;2023-11-19T05:35:20;8.80;99.90
12557;DHT22;6344;49.932;8.308;2023-11-19T05:37:48;8.80;99.90
12557;DHT22;6344;49.932;8.308;2023-11-19T05:40:15;8.90;99.90
12557;DHT22;6344;49.932;8.308;2023-11-19T05:42:42;8.90;99.90
12557;DHT22;6344;49.932;8.308;2023-11-19T05:45:11;8.90;99.90
12557;DHT22;6344;49.932;8.308;2023-11-19T05:47:38;8.90;99.90
12557;DHT22;6344;49.932;8.308;2023-11-19T05:50:05;8.90;99.90
12557;DHT22;6344;49.932;8.308;2023-11-19T05:52:32;9.00;99.90
12557;DHT22;6344;49.932;8.308;2023-11-19T05:55:01;9.00;99.90
12557;DHT22;6344;49.932;8.308;2023-11-19T05:57:29;9.00;99.90
12557;DHT22;6344;49.932;8.308;2023-11-19T05:59:56;9.10;99.90
12557;DHT22;6344;49.932;8.308;2023-11-19T06:02:24;9.10;99.90
12557;DHT22;6344;49.932;8.308;2023-11-19T06:04:52;9.10;99.90
12557;DHT22;6344;49.932;8.308;2023-11-19T06:07:19;9.20;99.90
12557;DHT22;6344;49.932;8.308;2023-11-19T06:09:46;9.10;99.90
12557;DHT22;6344;49.932;8.308;2023-11-19T06:12:14;9.20;99.90
12557;DHT22;6344;49.932;8.308;2023-11-19T06:14:40;9.20;99.90
12557;DHT22;6344;49.932;8.308;2023-11-19T06:17:07;9.20;99.90
12557;DHT22;6344;49.932;8.308;2023-11-19T06:19:36;9.20;99.90
12557;DHT22;6344;49.932;8.308;2023-11-19T06:22:03;9.10;99.90
12557;DHT22;6344;49.932;8.308;2023-11-19T06:24:30;9.20;99.90
12557;DHT22;6344;49.932;8.308;2023-11-19T06:26:56;9.20;99.90
12557;DHT22;6344;49.932;8.308;2023-11-19T06:29:24;9.30;99.90
12557;DHT22;6344;49.932;8.308;2023-11-19T06:31:51;9.30;99.90
12557;DHT22;6344;49.932;8.308;2023-11-19T06:34:18;9.20;99.90
12557;DHT22;6344;49.932;8.308;2023-11-19T06:36:44;9.30;99.90
12557;DHT22;6344;49.932;8.308;2023-11-19T06:39:11;9.40;99.90
12557;DHT22;6344;49.932;8.308;2023-11-19T06:41:38;9.40;99.90
12557;DHT22;6344;49.932;8.308;2023-11-19T06:44:05;9.40;99.90
12557;DHT22;6344;49.932;8.308;2023-11-19T06:46:33;9.90;99.90
12557;DHT22;6344;49.932;8.308;2023-11-19T06:48:59;9.90;99.90
12557;DHT22;6344;49.932;8.308;2023-11-19T06:51:26;9.90;99.90
12557;DHT22;6344;49.932;8.308;2023-11-19T06:53:53;10.00;99.90
12557;DHT22;6344;49.932;8.308;2023-11-19T06:56:20;10.10;99.90
12557;DHT22;6344;49.932;8.308;2023-11-19T06:58:47;10.40;99.90
12557;DHT22;6344;49.932;8.308;2023-11-19T07:01:14;10.20;99.90
12557;DHT22;6344;49.932;8.308;2023-11-19T07:03:42;10.30;99.90
12557;DHT22;6344;49.932;8.308;2023-11-19T07:06:10;10.10;99.90
12557;DHT22;6344;49.932;8.308;2023-11-19T07:08:38;10.20;99.90
12557;DHT22;6344;49.932;8.308;2023-11-19T07:11:05;10.20;99.90
12557;DHT22;6344;49.932;8.308;2023-11-19T07:13:31;10.20;99.90
12557;DHT22;6344;49.932;8.308;2023-11-19T07:15:58;10.10;99.90
12557;DHT22;6344;49.932;8.308;2023-11-19T07:18:25;10.00;99.90
12557;DHT22;6344;49.932;8.308;2023-11-19T07:20:53;10.00;99.90
12557;DHT22;6344;49.932;8.308;2023-11-19T07:23:20;9.90;99.90
12557;DHT22;6344;49.932;8.308;2023-11-19T07:25:47;10.00;99.90
12557;DHT22;6344;49.932;8.308;2023-11-19T07:28:15;9.90;99.90
12557;DHT22;6344;49.932;8.308;2023-11-19T07:30:43;9.80;99.90
12557;DHT22;6344;49.932;8.308;2023-11-19T07:33:09;9.70;99.90
12557;DHT22;6344;49.932;8.308;2023-11-19T07:35:36;9.50;99.90
12557;DHT22;6344;49.932;8.308;2023-11-19T07:38:04;9.40;99.90
12557;DHT22;6344;49.932;8.308;2023-11-19T07:40:31;9.30;99.90
12557;DHT22;6344;49.932;8.308;2023-11-19T07:42:57;9.40;99.90
12557;DHT22;6344;49.932;8.308;2023-11-19T07:45:24;9.40;99.90
12557;DHT22;6344;49.932;8.308;2023-11-19T07:47:52;9.40;99.90
12557;DHT22;6344;49.932;8.308;2023-11-19T07:50:20;9.40;99.90
12557;DHT22;6344;49.932;8.308;2023-11-19T07:52:46;9.60;99.90
12557;DHT22;6344;49.932;8.308;2023-11-19T07:55:14;9.70;99.90
12557;DHT22;6344;49.932;8.308;2023-11-19T07:57:41;9.90;99.90
12557;DHT22;6344;49.932;8.308;2023-11-19T08:00:09;10.50;99.90
12557;DHT22;6344;49.932;8.308;2023-11-19T08:02:37;10.70;99.90
12557;DHT22;6344;49.932;8.308;2023-11-19T08:05:05;10.80;99.90
12557;DHT22;6344;49.932;8.308;2023-11-19T08:07:32;10.90;99.90
12557;DHT22;6344;49.932;8.308;2023-11-19T08:09:58;11.00;99.90
12557;DHT22;6344;49.932;8.308;2023-11-19T08:12:26;11.00;99.90
12557;DHT22;6344;49.932;8.308;2023-11-19T08:14:53;11.00;99.90
12557;DHT22;6344;49.932;8.308;2023-11-19T08:17:20;11.00;99.90
12557;DHT22;6344;49.932;8.308;2023-11-19T08:19:48;11.00;99.90
12557;DHT22;6344;49.932;8.308;2023-11-19T08:22:15;11.10;99.90
12557;DHT22;6344;49.932;8.308;2023-11-19T08:24:42;10.90;99.90
12557;DHT22;6344;49.932;8.308;2023-11-19T08:27:08;11.00;99.90
12557;DHT22;6344;49.932;8.308;2023-11-19T08:29:36;11.00;99.90
12557;DHT22;6344;49.932;8.308;2023-11-19T08:32:04;10.90;99.90
12557;DHT22;6344;49.932;8.308;2023-11-19T08:34:31;11.40;99.90
12557;DHT22;6344;49.932;8.308;2023-11-19T08:36:59;11.60;99.90
12557;DHT22;6344;49.932;8.308;2023-11-19T08:39:26;12.10;99.90
12557;DHT22;6344;49.932;8.308;2023-11-19T08:41:52;12.40;99.90
12557;DHT22;6344;49.932;8.308;2023-11-19T08:44:20;12.50;99.90
12557;DHT22;6344;49.932;8.308;2023-11-19T08:46:49;12.60;99.90
12557;DHT22;6344;49.932;8.308;2023-11-19T08:49:16;12.60;99.90
12557;DHT22;6344;49.932;8.308;2023-11-19T08:51:42;12.60;99.90
12557;DHT22;6344;49.932;8.308;2023-11-19T08:54:10;12.60;99.90
12557;DHT22;6344;49.932;8.308;2023-11-19T08:56:38;12.70;99.90
12557;DHT22;6344;49.932;8.308;2023-11-19T08:59:05;12.70;99.90
12557;DHT22;6344;49.932;8.308;2023-11-19T09:01:31;12.70;99.90
12557;DHT22;6344;49.932;8.308;2023-11-19T09:03:59;12.70;99.90
12557;DHT22;6344;49.932;8.308;2023-11-19T09:06:26;12.70;99.90
12557;DHT22;6344;49.932;8.308;2023-11-19T09:08:53;12.80;99.90
12557;DHT22;6344;49.932;8.308;2023-11-19T09:11:23;13.10;99.90
12557;DHT22;6344;49.932;8.308;2023-11-19T09:13:50;13.50;99.90
12557;DHT22;6344;49.932;8.308;2023-11-19T09:16:17;13.70;99.90
12557;DHT22;6344;49.932;8.308;2023-11-19T09:18:43;13.60;99.90
12557;DHT22;6344;49.932;8.308;2023-11-19T09:21:12;13.50;99.90
12557;DHT22;6344;49.932;8.308;2023-11-19T09:23:38;13.70;99.90
12557;DHT22;6344;49.932;8.308;2023-11-19T09:26:08;13.70;99.90
12557;DHT22;6344;49.932;8.308;2023-11-19T09:28:35;13.70;99.90
12557;DHT22;6344;49.932;8.308;2023-11-19T09:31:02;13.90;99.90
12557;DHT22;6344;49.932;8.308;2023-11-19T09:33:30;14.10;99.90
12557;DHT22;6344;49.932;8.308;2023-11-19T09:35:56;14.20;99.90
12557;DHT22;6344;49.932;8.308;2023-11-19T09:38:24;14.30;99.90
12557;DHT22;6344;49.932;8.308;2023-11-19T09:40:51;14.50;99.90
12557;DHT22;6344;49.932;8.308;2023-11-19T09:43:18;14.80;99.90
12557;DHT22;6344;49.932;8.308;2023-11-19T09:45:48;14.90;99.90
12557;DHT22;6344;49.932;8.308;2023-11-19T09:48:16;14.40;99.90
12557;DHT22;6344;49.932;8.308;2023-11-19T09:50:44;14.30;99.90
12557;DHT22;6344;49.932;8.308;2023-11-19T09:53:12;14.30;99.90
12557;DHT22;6344;49.932;8.308;2023-11-19T09:55:40;14.30;99.90
12557;DHT22;6344;49.932;8.308;2023-11-19T09:58:07;14.40;99.90
12557;DHT22;6344;49.932;8.308;2023-11-19T10:00:34;14.40;99.90
12557;DHT22;6344;49.932;8.308;2023-11-19T10:03:01;14.40;99.90
12557;DHT22;6344;49.932;8.308;2023-11-19T10:05:30;14.60;99.90
12557;DHT22;6344;49.932;8.308;2023-11-19T10:07:58;14.90;99.90
12557;DHT22;6344;49.932;8.308;2023-11-19T10:10:24;15.20;99.90
12557;DHT22;6344;49.932;8.308;2023-11-19T10:12:52;15.60;99.90
12557;DHT22;6344;49.932;8.308;2023-11-19T10:15:21;15.80;99.90
12557;DHT22;6344;49.932;8.308;2023-11-19T10:17:48;15.80;99.90
12557;DHT22;6344;49.932;8.308;2023-11-19T10:20:15;16.00;99.90
12557;DHT22;6344;49.932;8.308;2023-11-19T10:22:41;15.90;99.90
12557;DHT22;6344;49.932;8.308;2023-11-19T10:25:21;15.30;99.90
12557;DHT22;6344;49.932;8.308;2023-11-19T10:27:48;15.10;99.90
12557;DHT22;6344;49.932;8.308;2023-11-19T10:33:02;14.40;99.90
12557;DHT22;6344;49.932;8.308;2023-11-19T10:35:30;14.20;99.90
12557;DHT22;6344;49.932;8.308;2023-11-19T10:37:59;14.20;99.90
12557;DHT22;6344;49.932;8.308;2023-11-19T10:40:38;14.30;99.90
12557;DHT22;6344;49.932;8.308;2023-11-19T10:43:05;15.10;99.90
12557;DHT22;6344;49.932;8.308;2023-11-19T10:45:34;15.70;99.90
12557;DHT22;6344;49.932;8.308;2023-11-19T10:48:02;16.20;99.90
12557;DHT22;6344;49.932;8.308;2023-11-19T10:50:31;15.70;99.90
12557;DHT22;6344;49.932;8.308;2023-11-19T10:52:59;15.30;99.90
12557;DHT22;6344;49.932;8.308;2023-11-19T10:55:28;15.20;99.90
12557;DHT22;6344;49.932;8.308;2023-11-19T10:57:58;15.80;99.90
12557;DHT22;6344;49.932;8.308;2023-11-19T11:00:26;15.50;99.90
12557;DHT22;6344;49.932;8.308;2023-11-19T11:03:00;15.00;99.90
12557;DHT22;6344;49.932;8.308;2023-11-19T11:05:27;14.80;99.90
12557;DHT22;6344;49.932;8.308;2023-11-19T11:07:55;14.80;99.90
12557;DHT22;6344;49.932;8.308;2023-11-19T11:10:25;14.80;99.90
12557;DHT22;6344;49.932;8.308;2023-11-19T11:12:52;14.80;99.90
12557;DHT22;6344;49.932;8.308;2023-11-19T11:15:27;14.80;99.90
12557;DHT22;6344;49.932;8.308;2023-11-19T11:17:59;14.70;99.90
12557;DHT22;6344;49.932;8.308;2023-11-19T11:20:27;15.50;99.90
12557;DHT22;6344;49.932;8.308;2023-11-19T11:23:06;15.50;99.90
12557;DHT22;6344;49.932;8.308;2023-11-19T11:25:43;15.80;99.90
12557;DHT22;6344;49.932;8.308;2023-11-19T11:28:22;16.30;99.90
12557;DHT22;6344;49.932;8.308;2023-11-19T11:31:15;16.40;99.90
12557;DHT22;6344;49.932;8.308;2023-11-19T11:34:05;16.80;99.90
12557;DHT22;6344;49.932;8.308;2023-11-19T11:43:45;15.60;99.90
12557;DHT22;6344;49.932;8.308;2023-11-19T11:49:14;14.80;99.90
12557;DHT22;6344;49.932;8.308;2023-11-19T11:51:58;14.80;99.90
12557;DHT22;6344;49.932;8.308;2023-11-19T11:54:29;15.40;99.90
12557;DHT22;6344;49.932;8.308;2023-11-19T11:57:02;15.50;99.90
12557;DHT22;6344;49.932;8.308;2023-11-19T11:59:36;15.80;99.90
12557;DHT22;6344;49.932;8.308;2023-11-19T12:02:03;16.10;99.90
12557;DHT22;6344;49.932;8.308;2023-11-19T12:04:31;16.10;99.90
12557;DHT22;6344;49.932;8.308;2023-11-19T12:07:05;16.30;99.90
12557;DHT22;6344;49.932;8.308;2023-11-19T12:09:31;16.10;99.90
12557;DHT22;6344;49.932;8.308;2023-11-19T12:12:11;16.30;99.90
12557;DHT22;6344;49.932;8.308;2023-11-19T12:15:00;16.50;99.90
12557;DHT22;6344;49.932;8.308;2023-11-19T12:17:37;16.20;99.90
12557;DHT22;6344;49.932;8.308;2023-11-19T12:20:11;16.40;99.90
12557;DHT22;6344;49.932;8.308;2023-11-19T12:22:38;16.30;99.90
12557;DHT22;6344;49.932;8.308;2023-11-19T12:25:06;16.50;99.90
12557;DHT22;6344;49.932;8.308;2023-11-19T12:27:34;16.20;99.90
12557;DHT22;6344;49.932;8.308;2023-11-19T12:30:01;16.40;99.90
12557;DHT22;6344;49.932;8.308;2023-11-19T12:32:37;16.60;99.90
12557;DHT22;6344;49.932;8.308;2023-11-19T12:35:04;16.70;99.90
12557;DHT22;6344;49.932;8.308;2023-11-19T12:37:33;16.50;99.90
12557;DHT22;6344;49.932;8.308;2023-11-19T12:40:00;16.40;99.90
12557;DHT22;6344;49.932;8.308;2023-11-19T12:42:36;16.80;99.90
12557;DHT22;6344;49.932;8.308;2023-11-19T12:45:04;16.80;99.90
12557;DHT22;6344;49.932;8.308;2023-11-19T12:47:31;17.00;99.90
12557;DHT22;6344;49.932;8.308;2023-11-19T12:49:58;16.90;99.90
12557;DHT22;6344;49.932;8.308;2023-11-19T12:52:25;16.60;99.90
12557;DHT22;6344;49.932;8.308;2023-11-19T12:54:53;16.90;99.90
12557;DHT22;6344;49.932;8.308;2023-11-19T12:57:20;16.50;99.90
12557;DHT22;6344;49.932;8.308;2023-11-19T12:59:56;16.30;99.90
12557;DHT22;6344;49.932;8.308;2023-11-19T13:02:23;16.40;99.90
12557;DHT22;6344;49.932;8.308;2023-11-19T13:04:49;16.10;99.90
12557;DHT22;6344;49.932;8.308;2023-11-19T13:07:20;16.10;99.90
12557;DHT22;6344;49.932;8.308;2023-11-19T13:09:47;16.00;99.90
12557;DHT22;6344;49.932;8.308;2023-11-19T13:12:16;16.00;99.90
12557;DHT22;6344;49.932;8.308;2023-11-19T13:14:42;15.60;99.90
12557;DHT22;6344;49.932;8.308;2023-11-19T13:17:13;16.20;99.90
12557;DHT22;6344;49.932;8.308;2023-11-19T13:19:40;15.80;99.90
12557;DHT22;6344;49.932;8.308;2023-11-19T13:22:07;16.00;99.90
12557;DHT22;6344;49.932;8.308;2023-11-19T13:24:33;16.10;99.90
12557;DHT22;6344;49.932;8.308;2023-11-19T13:27:00;16.00;99.90
12557;DHT22;6344;49.932;8.308;2023-11-19T13:29:28;16.20;99.90
12557;DHT22;6344;49.932;8.308;2023-11-19T13:31:55;16.00;99.90
12557;DHT22;6344;49.932;8.308;2023-11-19T13:34:22;16.30;99.90
12557;DHT22;6344;49.932;8.308;2023-11-19T13:36:48;16.40;99.90
12557;DHT22;6344;49.932;8.308;2023-11-19T13:39:15;16.50;99.90
12557;DHT22;6344;49.932;8.308;2023-11-19T13:41:48;16.40;99.90
12557;DHT22;6344;49.932;8.308;2023-11-19T13:44:15;16.40;99.90
12557;DHT22;6344;49.932;8.308;2023-11-19T13:46:45;15.80;99.90
12557;DHT22;6344;49.932;8.308;2023-11-19T13:49:12;15.80;99.90
12557;DHT22;6344;49.932;8.308;2023-11-19T13:51:39;16.00;99.90
12557;DHT22;6344;49.932;8.308;2023-11-19T13:54:06;15.90;99.90
12557;DHT22;6344;49.932;8.308;2023-11-19T13:56:32;15.30;99.90
12557;DHT22;6344;49.932;8.308;2023-11-19T13:58:59;15.40;99.90
12557;DHT22;6344;49.932;8.308;2023-11-19T14:01:26;15.20;99.90
12557;DHT22;6344;49.932;8.308;2023-11-19T14:03:54;14.70;99.90
12557;DHT22;6344;49.932;8.308;2023-11-19T14:06:21;14.50;99.90
12557;DHT22;6344;49.932;8.308;2023-11-19T14:08:49;14.20;99.90
12557;DHT22;6344;49.932;8.308;2023-11-19T14:11:16;14.80;99.90
12557;DHT22;6344;49.932;8.308;2023-11-19T14:13:43;15.40;99.90
12557;DHT22;6344;49.932;8.308;2023-11-19T14:16:10;15.70;99.90
12557;DHT22;6344;49.932;8.308;2023-11-19T14:18:38;15.50;99.90
12557;DHT22;6344;49.932;8.308;2023-11-19T14:21:06;15.30;99.90
12557;DHT22;6344;49.932;8.308;2023-11-19T14:23:33;15.40;99.90
12557;DHT22;6344;49.932;8.308;2023-11-19T14:25:59;15.10;99.90
12557;DHT22;6344;49.932;8.308;2023-11-19T14:28:26;14.60;99.90
12557;DHT22;6344;49.932;8.308;2023-11-19T14:30:53;14.70;99.90
12557;DHT22;6344;49.932;8.308;2023-11-19T14:33:22;14.70;99.90
12557;DHT22;6344;49.932;8.308;2023-11-19T14:35:49;14.80;99.90
12557;DHT22;6344;49.932;8.308;2023-11-19T14:38:17;14.70;99.90
12557;DHT22;6344;49.932;8.308;2023-11-19T14:40:44;14.70;99.90
12557;DHT22;6344;49.932;8.308;2023-11-19T14:43:11;14.80;99.90
12557;DHT22;6344;49.932;8.308;2023-11-19T14:45:37;14.80;99.90
12557;DHT22;6344;49.932;8.308;2023-11-19T14:48:05;14.40;99.90
12557;DHT22;6344;49.932;8.308;2023-11-19T14:50:32;14.30;99.90
12557;DHT22;6344;49.932;8.308;2023-11-19T14:52:58;14.10;99.90
12557;DHT22;6344;49.932;8.308;2023-11-19T14:55:26;13.90;99.90
12557;DHT22;6344;49.932;8.308;2023-11-19T14:57:53;13.70;99.90
12557;DHT22;6344;49.932;8.308;2023-11-19T15:00:20;13.60;99.90
12557;DHT22;6344;49.932;8.308;2023-11-19T15:02:46;13.50;99.90
12557;DHT22;6344;49.932;8.308;2023-11-19T15:05:13;13.70;99.90
12557;DHT22;6344;49.932;8.308;2023-11-19T15:07:40;13.60;99.90
12557;DHT22;6344;49.932;8.308;2023-11-19T15:10:07;13.50;99.90
12557;DHT22;6344;49.932;8.308;2023-11-19T15:12:38;13.30;99.90
12557;DHT22;6344;49.932;8.308;2023-11-19T15:15:07;13.20;99.90
12557;DHT22;6344;49.932;8.308;2023-11-19T15:17:34;13.20;99.90
12557;DHT22;6344;49.932;8.308;2023-11-19T15:20:02;13.10;99.90
12557;DHT22;6344;49.932;8.308;2023-11-19T15:22:28;13.00;99.90
12557;DHT22;6344;49.932;8.308;2023-11-19T15:24:55;12.80;99.90
12557;DHT22;6344;49.932;8.308;2023-11-19T15:27:21;12.60;99.90
12557;DHT22;6344;49.932;8.308;2023-11-19T15:29:50;12.40;99.90
12557;DHT22;6344;49.932;8.308;2023-11-19T15:32:17;12.40;99.90
12557;DHT22;6344;49.932;8.308;2023-11-19T15:34:44;12.20;99.90
12557;DHT22;6344;49.932;8.308;2023-11-19T15:37:11;12.00;99.90
12557;DHT22;6344;49.932;8.308;2023-11-19T15:39:39;12.00;99.90
12557;DHT22;6344;49.932;8.308;2023-11-19T15:42:06;11.90;99.90
12557;DHT22;6344;49.932;8.308;2023-11-19T15:44:35;12.00;99.90
12557;DHT22;6344;49.932;8.308;2023-11-19T15:47:03;11.90;99.90
12557;DHT22;6344;49.932;8.308;2023-11-19T15:49:30;12.00;99.90
12557;DHT22;6344;49.932;8.308;2023-11-19T15:51:57;11.80;99.90
12557;DHT22;6344;49.932;8.308;2023-11-19T15:54:25;11.90;99.90
12557;DHT22;6344;49.932;8.308;2023-11-19T15:56:51;12.20;99.90
12557;DHT22;6344;49.932;8.308;2023-11-19T15:59:18;12.30;99.90
12557;DHT22;6344;49.932;8.308;2023-11-19T16:01:46;12.20;99.90
12557;DHT22;6344;49.932;8.308;2023-11-19T16:04:14;12.20;99.90
12557;DHT22;6344;49.932;8.308;2023-11-19T16:06:41;11.90;99.90
12557;DHT22;6344;49.932;8.308;2023-11-19T16:09:08;12.00;99.90